createdAt,value
2023-03-11T00:00:19.397Z,0.70
2023-03-11T00:02:47.644Z,1.05
2023-03-11T00:05:21.871Z,0.75
2023-03-11T00:07:48.718Z,1.20
2023-03-11T00:10:21.306Z,1.10
2023-03-11T00:12:48.042Z,1.05
2023-03-11T00:15:15.513Z,0.90
2023-03-11T00:17:42.337Z,0.90
2023-03-11T00:20:22.951Z,1.20
2023-03-11T00:22:51.199Z,1.10
2023-03-11T00:25:19.079Z,1.25
2023-03-11T00:27:46.186Z,0.82
2023-03-11T00:30:15.218Z,1.30
2023-03-11T00:32:41.943Z,1.00
2023-03-11T00:35:12.833Z,0.82
2023-03-11T00:37:39.686Z,1.20
2023-03-11T00:40:08.847Z,1.00
2023-03-11T00:42:35.606Z,1.00
2023-03-11T00:45:02.481Z,1.00
2023-03-11T00:47:29.212Z,1.23
2023-03-11T00:49:55.925Z,0.85
2023-03-11T00:52:22.670Z,1.10
2023-03-11T00:54:49.341Z,1.10
2023-03-11T00:57:16.038Z,1.10
2023-03-11T00:59:42.897Z,1.20
2023-03-11T01:02:09.588Z,0.90
2023-03-11T01:04:36.353Z,1.30
2023-03-11T01:07:03.424Z,0.82
2023-03-11T01:09:30.170Z,0.80
2023-03-11T01:11:56.950Z,0.82
2023-03-11T01:14:23.955Z,0.93
2023-03-11T01:16:50.801Z,1.00
2023-03-11T01:19:17.564Z,0.60
2023-03-11T01:21:44.299Z,1.17
2023-03-11T01:24:11.041Z,0.95
2023-03-11T01:26:38.020Z,0.80
2023-03-11T01:29:04.771Z,1.15
2023-03-11T01:31:31.591Z,0.80
2023-03-11T01:33:58.289Z,1.23
2023-03-11T01:36:25.247Z,1.05
2023-03-11T01:38:52.040Z,1.00
2023-03-11T01:41:18.768Z,0.70
2023-03-11T01:43:45.481Z,1.00
2023-03-11T01:46:18.789Z,1.25
2023-03-11T01:48:48.359Z,1.00
2023-03-11T01:51:17.430Z,0.90
2023-03-11T01:53:44.397Z,1.00
2023-03-11T01:56:11.681Z,0.85
2023-03-11T01:58:41.046Z,1.33
2023-03-11T02:01:08.105Z,1.40
2023-03-11T02:03:38.975Z,1.23
2023-03-11T02:06:14.065Z,1.00
2023-03-11T02:08:42.338Z,0.82
2023-03-11T02:11:15.720Z,1.00
2023-03-11T02:13:45.210Z,0.68
2023-03-11T02:16:14.087Z,1.27
2023-03-11T02:18:42.629Z,1.30
2023-03-11T02:21:26.828Z,1.58
2023-03-11T02:24:15.368Z,1.20
2023-03-11T02:26:53.476Z,0.90
2023-03-11T02:29:22.199Z,0.55
2023-03-11T02:31:49.796Z,0.85
2023-03-11T02:34:25.798Z,0.88
2023-03-11T02:36:52.559Z,0.85
2023-03-11T02:39:37.166Z,1.15
2023-03-11T02:42:08.835Z,1.10
2023-03-11T02:44:35.775Z,1.00
2023-03-11T02:47:02.575Z,0.75
2023-03-11T02:49:30.160Z,1.40
2023-03-11T02:51:56.913Z,0.85
2023-03-11T02:54:23.619Z,0.90
2023-03-11T02:56:50.329Z,1.02
2023-03-11T02:59:17.299Z,1.10
2023-03-11T03:01:44.020Z,1.08
2023-03-11T03:04:10.856Z,0.90
2023-03-11T03:06:37.596Z,1.10
2023-03-11T03:09:04.731Z,1.00
2023-03-11T03:11:31.968Z,1.00
2023-03-11T03:13:58.812Z,3.55
2023-03-11T03:16:25.531Z,1.00
2023-03-11T03:18:52.672Z,0.90
2023-03-11T03:21:19.445Z,1.42
2023-03-11T03:23:46.224Z,0.85
2023-03-11T03:26:14.159Z,0.98
2023-03-11T03:28:41.137Z,1.30
2023-03-11T03:31:09.366Z,0.77
2023-03-11T03:33:36.363Z,0.70
2023-03-11T03:36:07.734Z,0.95
2023-03-11T03:38:34.587Z,1.52
2023-03-11T03:41:01.347Z,1.00
2023-03-11T03:43:28.043Z,1.73
2023-03-11T03:46:03.770Z,1.90
2023-03-11T03:48:30.852Z,1.58
2023-03-11T03:51:02.008Z,1.15
2023-03-11T03:53:28.781Z,1.25
2023-03-11T03:55:55.720Z,1.17
2023-03-11T03:58:22.407Z,1.35
2023-03-11T04:00:49.118Z,1.35
2023-03-11T04:03:15.836Z,1.00
2023-03-11T04:05:42.580Z,1.45
2023-03-11T04:08:09.269Z,1.20
2023-03-11T04:10:36.008Z,1.00
2023-03-11T04:13:03.027Z,1.00
2023-03-11T04:15:29.798Z,1.10
2023-03-11T04:17:56.464Z,1.30
2023-03-11T04:20:23.244Z,1.15
2023-03-11T04:22:49.939Z,1.25
2023-03-11T04:25:16.679Z,1.25
2023-03-11T04:27:46.279Z,1.30
2023-03-11T04:30:13.581Z,0.93
2023-03-11T04:32:40.377Z,1.20
2023-03-11T04:35:07.463Z,2.00
2023-03-11T04:37:34.198Z,2.92
2023-03-11T04:40:00.947Z,1.02
2023-03-11T04:42:28.250Z,1.50
2023-03-11T04:44:54.985Z,1.25
2023-03-11T04:47:22.036Z,1.02
2023-03-11T04:49:49.046Z,1.00
2023-03-11T04:52:15.770Z,1.00
2023-03-11T04:54:42.586Z,1.05
2023-03-11T04:57:09.379Z,1.23
2023-03-11T04:59:36.162Z,0.80
2023-03-11T05:02:02.992Z,0.80
2023-03-11T05:04:29.851Z,0.98
2023-03-11T05:06:56.582Z,1.00
2023-03-11T05:09:23.344Z,0.80
2023-03-11T05:11:50.025Z,0.90
2023-03-11T05:14:16.735Z,1.15
2023-03-11T05:16:43.478Z,1.00
2023-03-11T05:19:29.017Z,0.90
2023-03-11T05:21:55.734Z,1.27
2023-03-11T05:24:22.846Z,0.85
2023-03-11T05:26:49.528Z,1.50
2023-03-11T05:29:16.316Z,1.00
2023-03-11T05:31:43.488Z,1.40
2023-03-11T05:34:10.253Z,1.23
2023-03-11T05:36:36.953Z,1.00
2023-03-11T05:39:05.933Z,2.38
2023-03-11T05:41:32.641Z,1.20
2023-03-11T05:43:59.397Z,1.10
2023-03-11T05:46:26.492Z,1.20
2023-03-11T05:48:53.394Z,1.45
2023-03-11T05:51:20.507Z,1.20
2023-03-11T05:53:48.746Z,1.30
2023-03-11T05:56:16.758Z,1.63
2023-03-11T05:58:43.605Z,1.38
2023-03-11T06:01:11.857Z,1.05
2023-03-11T06:03:39.733Z,1.27
2023-03-11T06:06:08.414Z,1.75
2023-03-11T06:08:35.670Z,1.40
2023-03-11T06:11:04.957Z,1.20
2023-03-11T06:13:31.993Z,1.25
2023-03-11T06:15:58.795Z,1.23
2023-03-11T06:18:26.745Z,1.67
2023-03-11T06:20:54.650Z,1.42
2023-03-11T06:23:21.370Z,1.88
2023-03-11T06:26:02.324Z,1.15
2023-03-11T06:28:29.855Z,1.20
2023-03-11T06:30:56.751Z,1.75
2023-03-11T06:33:24.073Z,1.40
2023-03-11T06:35:58.493Z,1.50
2023-03-11T06:38:25.481Z,1.23
2023-03-11T06:40:52.954Z,1.83
2023-03-11T06:43:21.508Z,3.35
2023-03-11T06:45:48.366Z,3.78
2023-03-11T06:48:15.125Z,1.95
2023-03-11T06:50:41.833Z,1.23
2023-03-11T06:53:08.554Z,1.90
2023-03-11T06:55:35.984Z,1.30
2023-03-11T06:58:03.126Z,1.35
2023-03-11T07:00:31.274Z,1.40
2023-03-11T07:02:58.232Z,1.60
2023-03-11T07:05:25.151Z,1.23
2023-03-11T07:07:54.587Z,1.20
2023-03-11T07:10:21.846Z,1.52
2023-03-11T07:12:48.574Z,1.40
2023-03-11T07:15:15.524Z,1.67
2023-03-11T07:17:42.270Z,1.30
2023-03-11T07:20:09.762Z,1.35
2023-03-11T07:22:36.490Z,1.20
2023-03-11T07:25:03.337Z,1.40
2023-03-11T07:27:30.110Z,1.00
2023-03-11T07:29:56.820Z,1.10
2023-03-11T07:32:23.553Z,1.00
2023-03-11T07:34:50.321Z,1.15
2023-03-11T07:37:17.042Z,1.50
2023-03-11T07:39:43.753Z,1.30
2023-03-11T07:42:10.555Z,0.90
2023-03-11T07:44:37.472Z,1.63
2023-03-11T07:47:06.133Z,0.80
2023-03-11T07:49:33.117Z,1.23
2023-03-11T07:51:59.952Z,0.93
2023-03-11T07:54:26.759Z,1.33
2023-03-11T07:56:54.512Z,0.90
2023-03-11T07:59:21.323Z,0.73
2023-03-11T08:01:48.103Z,0.88
2023-03-11T08:04:17.087Z,0.85
2023-03-11T08:06:46.732Z,0.90
2023-03-11T08:09:13.908Z,0.70
2023-03-11T08:11:40.780Z,0.93
2023-03-11T08:14:07.653Z,0.93
2023-03-11T08:16:34.824Z,0.88
2023-03-11T08:19:01.757Z,0.90
2023-03-11T08:21:32.087Z,1.08
2023-03-11T08:24:01.352Z,0.90
2023-03-11T08:26:29.036Z,1.00
2023-03-11T08:28:57.241Z,2.25
2023-03-11T08:31:27.107Z,2.53
2023-03-11T08:33:58.909Z,2.55
2023-03-11T08:36:25.880Z,1.02
2023-03-11T08:38:52.875Z,1.00
2023-03-11T08:41:20.000Z,1.83
2023-03-11T08:43:46.971Z,1.50
2023-03-11T08:46:35.122Z,1.05
2023-03-11T08:49:03.141Z,1.10
2023-03-11T08:51:31.547Z,1.15
2023-03-11T08:53:59.182Z,2.35
2023-03-11T08:56:27.879Z,1.23
2023-03-11T08:58:54.921Z,1.00
2023-03-11T09:01:22.994Z,1.10
2023-03-11T09:03:49.879Z,1.00
2023-03-11T09:06:17.400Z,0.80
2023-03-11T09:08:45.787Z,1.83
2023-03-11T09:11:14.842Z,1.10
2023-03-11T09:13:42.826Z,0.90
2023-03-11T09:16:13.977Z,1.00
2023-03-11T09:18:40.886Z,0.88
2023-03-11T09:21:07.805Z,1.15
2023-03-11T09:23:34.539Z,1.25
2023-03-11T09:26:01.406Z,1.10
2023-03-11T09:28:28.165Z,1.27
2023-03-11T09:30:55.073Z,1.00
2023-03-11T09:33:21.845Z,1.40
2023-03-11T09:35:48.748Z,1.45
2023-03-11T09:38:15.471Z,1.17
2023-03-11T09:41:19.001Z,1.70
2023-03-11T09:43:45.838Z,3.60
2023-03-11T09:47:06.242Z,1.10
2023-03-11T09:49:51.228Z,1.45
2023-03-11T09:52:43.684Z,1.50
2023-03-11T09:55:34.626Z,1.00
2023-03-11T09:58:14.024Z,1.80
2023-03-11T10:00:41.209Z,1.25
2023-03-11T10:03:22.119Z,1.00
2023-03-11T10:05:49.125Z,1.10
2023-03-11T10:08:44.230Z,1.00
2023-03-11T10:11:44.862Z,1.00
2023-03-11T10:14:31.339Z,1.50
2023-03-11T10:17:36.354Z,1.00
2023-03-11T10:20:13.055Z,1.13
2023-03-11T10:22:42.741Z,0.70
2023-03-11T10:25:11.322Z,1.20
2023-03-11T10:27:47.789Z,0.70
2023-03-11T10:30:28.602Z,0.98
2023-03-11T10:33:01.188Z,1.13
2023-03-11T10:35:42.052Z,0.98
2023-03-11T10:38:26.235Z,0.90
2023-03-11T10:40:56.384Z,1.35
2023-03-11T10:43:29.106Z,1.23
2023-03-11T10:45:55.895Z,1.20
2023-03-11T10:48:24.538Z,1.00
2023-03-11T10:50:55.120Z,0.80
2023-03-11T10:53:21.929Z,0.93
2023-03-11T10:55:54.678Z,0.90
2023-03-11T10:58:27.595Z,0.90
2023-03-11T11:01:08.335Z,1.10
2023-03-11T11:03:35.536Z,0.90
2023-03-11T11:06:07.291Z,0.90
2023-03-11T11:08:34.727Z,1.08
2023-03-11T11:11:03.996Z,1.20
2023-03-11T11:13:34.412Z,1.42
2023-03-11T11:16:20.404Z,1.08
2023-03-11T11:19:00.385Z,1.27
2023-03-11T11:21:40.041Z,1.25
2023-03-11T11:24:24.364Z,1.00
2023-03-11T11:27:23.356Z,1.98
2023-03-11T11:30:23.182Z,1.10
2023-03-11T11:32:53.690Z,0.80
2023-03-11T11:35:23.024Z,1.27
2023-03-11T11:37:59.735Z,1.10
2023-03-11T11:40:28.070Z,0.98
2023-03-11T11:43:06.512Z,1.63
2023-03-11T11:45:39.697Z,1.05
2023-03-11T11:48:32.198Z,1.10
2023-03-11T11:51:02.926Z,0.98
2023-03-11T11:54:15.332Z,1.20
2023-03-11T11:56:42.109Z,0.90
2023-03-11T11:59:21.657Z,0.95
2023-03-11T12:01:57.285Z,1.20
2023-03-11T12:04:46.291Z,1.27
2023-03-11T12:07:29.548Z,0.90
2023-03-11T12:10:00.752Z,1.33
2023-03-11T12:12:58.192Z,1.10
2023-03-11T12:15:32.590Z,1.05
2023-03-11T12:18:08.989Z,6.15
2023-03-11T12:20:55.060Z,1.65
2023-03-11T12:23:49.390Z,0.93
2023-03-11T12:26:22.724Z,1.10
2023-03-11T12:28:55.623Z,0.90
2023-03-11T12:31:24.751Z,1.23
2023-03-11T12:34:03.318Z,1.13
2023-03-11T12:36:40.107Z,1.20
2023-03-11T12:39:19.401Z,1.50
2023-03-11T12:41:46.527Z,1.40
2023-03-11T12:44:30.425Z,1.45
2023-03-11T12:47:16.755Z,1.13
2023-03-11T12:49:46.460Z,1.38
2023-03-11T12:52:15.928Z,1.20
2023-03-11T12:54:51.015Z,1.17
2023-03-11T12:57:20.682Z,1.30
2023-03-11T13:00:07.077Z,1.27
2023-03-11T13:03:09.823Z,1.20
2023-03-11T13:05:45.386Z,1.30
2023-03-11T13:08:25.862Z,1.30
2023-03-11T13:10:54.650Z,1.10
2023-03-11T13:13:42.183Z,1.75
2023-03-11T13:16:15.209Z,1.30
2023-03-11T13:18:44.235Z,1.48
2023-03-11T13:21:32.050Z,1.30
2023-03-11T13:24:26.014Z,1.20
2023-03-11T13:26:58.627Z,6.90
2023-03-11T13:29:57.256Z,2.15
2023-03-11T13:32:33.014Z,1.50
2023-03-11T13:35:24.594Z,1.17
2023-03-11T13:38:28.717Z,1.45
2023-03-11T13:40:55.770Z,1.75
2023-03-11T13:43:25.208Z,1.50
2023-03-11T13:46:03.868Z,1.40
2023-03-11T13:48:37.653Z,1.30
2023-03-11T13:51:13.180Z,1.65
2023-03-11T13:53:51.560Z,1.30
2023-03-11T13:56:36.633Z,2.10
2023-03-11T13:59:22.927Z,2.00
2023-03-11T14:01:51.396Z,2.60
2023-03-11T14:04:26.871Z,1.25
2023-03-11T14:06:53.767Z,1.80
2023-03-11T14:09:22.871Z,1.73
2023-03-11T14:11:49.995Z,1.30
2023-03-11T14:14:42.712Z,2.05
2023-03-11T14:17:16.263Z,1.60
2023-03-11T14:19:43.719Z,1.73
2023-03-11T14:22:10.860Z,2.20
2023-03-11T14:24:38.908Z,1.75
2023-03-11T14:27:09.440Z,1.50
2023-03-11T14:29:42.553Z,1.67
2023-03-11T14:32:30.348Z,2.05
2023-03-11T14:34:57.940Z,1.25
2023-03-11T14:37:33.531Z,1.42
2023-03-11T14:40:00.675Z,1.50
2023-03-11T14:42:39.761Z,1.38
2023-03-11T14:45:13.778Z,2.97
2023-03-11T14:47:45.823Z,1.45
2023-03-11T14:50:26.436Z,1.80
2023-03-11T14:53:11.656Z,1.50
2023-03-11T14:55:50.839Z,1.50
2023-03-11T14:58:20.510Z,5.50
2023-03-11T15:00:54.038Z,1.70
2023-03-11T15:03:33.410Z,1.80
2023-03-11T15:06:06.951Z,1.75
2023-03-11T15:08:41.815Z,1.73
2023-03-11T15:11:19.222Z,1.80
2023-03-11T15:13:50.657Z,1.25
2023-03-11T15:16:35.777Z,1.45
2023-03-11T15:19:20.866Z,2.35
2023-03-11T15:21:49.406Z,1.30
2023-03-11T15:24:21.989Z,1.90
2023-03-11T15:27:06.901Z,1.70
2023-03-11T15:29:35.220Z,1.38
2023-03-11T15:32:43.132Z,1.70
2023-03-11T15:35:12.926Z,1.40
2023-03-11T15:37:41.228Z,1.83
2023-03-11T15:40:38.600Z,2.15
2023-03-11T15:43:15.087Z,1.52
2023-03-11T15:45:42.305Z,1.80
2023-03-11T15:48:11.440Z,1.63
2023-03-11T15:50:53.840Z,1.63
2023-03-11T15:53:22.061Z,1.85
2023-03-11T15:55:49.321Z,1.60
2023-03-11T15:58:18.291Z,1.60
2023-03-11T16:00:51.351Z,1.75
2023-03-11T16:03:19.337Z,1.48
2023-03-11T16:05:46.782Z,2.05
2023-03-11T16:08:13.800Z,1.75
2023-03-11T16:10:40.729Z,2.40
2023-03-11T16:13:10.165Z,1.90
2023-03-11T16:15:38.140Z,1.70
2023-03-11T16:18:07.558Z,1.85
2023-03-11T16:20:42.960Z,2.38
2023-03-11T16:23:25.766Z,1.42
2023-03-11T16:25:57.355Z,2.80
2023-03-11T16:28:24.077Z,1.75
2023-03-11T16:30:51.563Z,2.15
2023-03-11T16:33:18.527Z,1.80
2023-03-11T16:35:45.925Z,1.98
2023-03-11T16:38:12.747Z,1.80
2023-03-11T16:40:39.666Z,2.30
2023-03-11T16:43:11.434Z,2.03
2023-03-11T16:45:38.251Z,2.00
2023-03-11T16:48:06.547Z,1.95
2023-03-11T16:50:34.489Z,3.05
2023-03-11T16:53:03.369Z,2.15
2023-03-11T16:55:30.702Z,2.20
2023-03-11T16:57:57.733Z,2.00
2023-03-11T17:00:25.031Z,2.10
2023-03-11T17:02:52.400Z,2.20
2023-03-11T17:05:19.406Z,2.10
2023-03-11T17:07:47.858Z,1.80
2023-03-11T17:10:14.812Z,1.83
2023-03-11T17:12:41.490Z,1.80
2023-03-11T17:15:08.598Z,2.38
2023-03-11T17:17:35.733Z,2.50
2023-03-11T17:20:03.074Z,2.83
2023-03-11T17:22:29.774Z,2.65
2023-03-11T17:24:56.467Z,2.35
2023-03-11T17:27:23.236Z,2.17
2023-03-11T17:29:50.380Z,3.38
2023-03-11T17:32:17.688Z,2.63
2023-03-11T17:34:44.716Z,2.40
2023-03-11T17:37:11.431Z,2.30
2023-03-11T17:39:38.106Z,2.05
2023-03-11T17:42:05.120Z,2.33
2023-03-11T17:44:48.504Z,2.75
2023-03-11T17:47:19.618Z,2.55
2023-03-11T17:49:47.103Z,1.85
2023-03-11T17:52:13.854Z,2.40
2023-03-11T17:54:40.619Z,2.40
2023-03-11T17:57:07.494Z,2.60
2023-03-11T17:59:34.329Z,2.40
2023-03-11T18:02:01.195Z,2.40
2023-03-11T18:04:28.121Z,2.50
2023-03-11T18:06:55.305Z,2.90
2023-03-11T18:09:22.569Z,2.20
2023-03-11T18:11:49.396Z,2.60
2023-03-11T18:14:16.176Z,3.20
2023-03-11T18:16:42.986Z,3.47
2023-03-11T18:19:09.722Z,2.72
2023-03-11T18:21:36.497Z,3.83
2023-03-11T18:24:03.325Z,3.80
2023-03-11T18:26:30.868Z,4.00
2023-03-11T18:28:59.503Z,3.30
2023-03-11T18:31:28.351Z,3.63
2023-03-11T18:34:02.716Z,4.25
2023-03-11T18:36:32.688Z,3.42
2023-03-11T18:39:00.819Z,2.50
2023-03-11T18:41:30.084Z,2.83
2023-03-11T18:43:57.777Z,2.85
2023-03-11T18:46:26.745Z,3.20
2023-03-11T18:48:54.745Z,2.42
2023-03-11T18:51:21.459Z,2.00
2023-03-11T18:53:48.147Z,2.40
2023-03-11T18:56:16.587Z,2.65
2023-03-11T18:58:43.669Z,2.15
2023-03-11T19:01:14.221Z,2.50
2023-03-11T19:03:46.007Z,2.50
2023-03-11T19:06:13.601Z,2.60
2023-03-11T19:08:40.829Z,3.05
2023-03-11T19:11:08.899Z,2.22
2023-03-11T19:13:46.199Z,2.72
2023-03-11T19:16:16.336Z,2.47
2023-03-11T19:18:43.165Z,2.28
2023-03-11T19:21:12.792Z,2.08
2023-03-11T19:23:39.691Z,2.45
2023-03-11T19:26:07.053Z,2.13
2023-03-11T19:28:34.014Z,2.25
2023-03-11T19:31:01.078Z,3.05
2023-03-11T19:33:28.323Z,3.00
2023-03-11T19:35:57.659Z,3.33
2023-03-11T19:38:25.535Z,2.88
2023-03-11T19:41:18.667Z,3.10
2023-03-11T19:43:49.172Z,3.80
2023-03-11T19:46:18.558Z,2.65
2023-03-11T19:48:45.382Z,2.97
2023-03-11T19:51:12.685Z,3.47
2023-03-11T19:53:41.565Z,3.45
2023-03-11T19:56:09.517Z,4.28
2023-03-11T19:58:36.594Z,2.90
2023-03-11T20:01:04.168Z,3.58
2023-03-11T20:03:31.354Z,3.47
2023-03-11T20:06:05.285Z,3.33
2023-03-11T20:08:36.575Z,3.88
2023-03-11T20:11:04.719Z,5.20
2023-03-11T20:13:33.238Z,4.80
2023-03-11T20:16:11.958Z,4.60
2023-03-11T20:18:38.955Z,4.40
2023-03-11T20:21:07.820Z,4.28
2023-03-11T20:23:35.455Z,6.00
2023-03-11T20:26:11.648Z,4.30
2023-03-11T20:28:38.724Z,4.00
2023-03-11T20:31:17.663Z,5.20
2023-03-11T20:33:44.757Z,5.03
2023-03-11T20:36:14.549Z,6.47
2023-03-11T20:38:41.892Z,6.80
2023-03-11T20:41:10.200Z,7.82
2023-03-11T20:43:38.531Z,5.75
2023-03-11T20:46:06.838Z,5.80
2023-03-11T20:48:34.474Z,6.53
2023-03-11T20:51:02.819Z,5.60
2023-03-11T20:53:32.943Z,6.03
2023-03-11T20:56:05.780Z,5.47
2023-03-11T20:58:32.655Z,5.35
2023-03-11T21:00:59.445Z,4.40
2023-03-11T21:03:26.307Z,5.38
2023-03-11T21:05:53.118Z,6.05
2023-03-11T21:08:19.910Z,6.15
2023-03-11T21:10:46.875Z,5.70
2023-03-11T21:13:13.751Z,5.95
2023-03-11T21:15:40.557Z,7.38
2023-03-11T21:18:07.473Z,6.60
2023-03-11T21:20:34.264Z,7.38
2023-03-11T21:23:01.236Z,7.15
2023-03-11T21:25:30.428Z,7.40
2023-03-11T21:27:57.140Z,7.97
2023-03-11T21:30:23.885Z,6.95
2023-03-11T21:32:50.880Z,8.55
2023-03-11T21:35:20.801Z,8.95
2023-03-11T21:37:47.734Z,11.63
2023-03-11T21:40:14.844Z,12.25
2023-03-11T21:42:41.627Z,10.48
2023-03-11T21:45:08.957Z,10.13
2023-03-11T21:47:36.833Z,9.15
2023-03-11T21:50:05.507Z,9.95
2023-03-11T21:52:32.346Z,9.73
2023-03-11T21:54:59.251Z,10.57
2023-03-11T21:57:26.325Z,8.25
2023-03-11T21:59:53.272Z,6.85
2023-03-11T22:02:20.342Z,8.00
2023-03-11T22:04:48.558Z,6.85
2023-03-11T22:07:15.499Z,7.75
2023-03-11T22:09:42.435Z,7.82
2023-03-11T22:12:09.491Z,7.32
2023-03-11T22:14:36.437Z,6.97
2023-03-11T22:17:03.357Z,6.85
2023-03-11T22:19:30.314Z,7.00
2023-03-11T22:21:57.289Z,8.18
2023-03-11T22:24:24.265Z,8.73
2023-03-11T22:26:51.037Z,6.97
2023-03-11T22:29:17.827Z,7.20
2023-03-11T22:31:44.583Z,6.63
2023-03-11T22:34:11.429Z,5.93
2023-03-11T22:36:38.139Z,6.82
2023-03-11T22:39:05.265Z,6.40
2023-03-11T22:41:32.744Z,5.55
2023-03-11T22:43:59.593Z,6.97
2023-03-11T22:46:27.259Z,6.97
2023-03-11T22:48:54.084Z,6.85
2023-03-11T22:51:21.055Z,8.07
2023-03-11T22:53:47.991Z,9.10
2023-03-11T22:56:16.312Z,8.52
2023-03-11T22:58:43.236Z,9.73
2023-03-11T23:01:10.394Z,9.10
2023-03-11T23:03:37.768Z,11.98
2023-03-11T23:06:08.227Z,12.52
2023-03-11T23:08:35.824Z,8.68
2023-03-11T23:11:08.512Z,8.18
2023-03-11T23:13:36.342Z,6.15
2023-03-11T23:16:14.964Z,7.82
2023-03-11T23:18:43.448Z,8.77
2023-03-11T23:21:22.373Z,6.00
2023-03-11T23:23:49.317Z,6.45
2023-03-11T23:26:17.323Z,8.02
2023-03-11T23:28:44.924Z,6.90
2023-03-11T23:31:13.774Z,8.82
2023-03-11T23:33:41.322Z,10.10
2023-03-11T23:36:11.333Z,11.45
2023-03-11T23:38:38.377Z,10.13
2023-03-11T23:41:16.575Z,10.68
2023-03-11T23:43:43.951Z,10.85
2023-03-11T23:46:11.230Z,9.63
2023-03-11T23:48:39.061Z,11.05
2023-03-11T23:51:06.001Z,9.55
2023-03-11T23:53:33.109Z,9.55
2023-03-11T23:55:59.896Z,13.98
2023-03-11T23:58:26.792Z,10.20
